KCMX/CMX METAR and TAF weather

Enter ICAO airport designator
Station Type Date Time Source
KCMX METAR 2020/05/30 04:53 UTC NOAA

KCMX 300453Z AUTO 00000KT 10SM -RA FEW027 BKN035 OVC047 10/04 A3008 RMK AO2 RAB51 SLP190 P0000 T01000039 401440094


Station Type Date Time Source
KCMX Decoded METAR 2020/05/30 04:53 UTC NOAA

HANCOCK HOUGHTON CTY. MEMO, MI, United States (KCMX) 47-10N 088-29W 326M
May 30, 2020 - 12:53 AM EDT / 2020.05.30 0453 UTC
Wind: Calm:0
Visibility: 10 mile(s):0
Sky conditions: overcast
Weather: light rain
Precipitation last hour: A trace
Temperature: 50.0 F (10.0 C)
Dew Point: 39.0 F (3.9 C)
Relative Humidity: 65%
Pressure (altimeter): 30.08 in. Hg (1018 hPa)
ob: KCMX 300453Z AUTO 00000KT 10SM -RA FEW027 BKN035 OVC047 10/04 A3008 RMK AO2 RAB51 SLP190 P0000 T01000039 401440094
cycle: 5

Station Type Date Time Source
KCMX TAF 2020/05/29 18:24 UTC NOAA

TAF KCMX 291721Z 2918/3018 32012G20KT P6SM VCSH SCT010 BKN020
FM292200 34010G17KT P6SM SCT025 BKN035
FM300400 VRB03KT P6SM BKN045
FM300800 33007KT P6SM VCSH BKN027
FM301600 34012KT P6SM SCT045

Example: see airport list